createdAt,value
2023-01-13T00:00:29.107Z,3.77
2023-01-13T00:02:55.407Z,3.81
2023-01-13T00:05:21.706Z,3.76
2023-01-13T00:07:47.912Z,3.79
2023-01-13T00:10:14.200Z,3.70
2023-01-13T00:12:40.579Z,3.66
2023-01-13T00:15:06.817Z,3.66
2023-01-13T00:17:33.132Z,3.76
2023-01-13T00:19:59.384Z,3.87
2023-01-13T00:22:25.606Z,3.92
2023-01-13T00:24:51.880Z,4.02
2023-01-13T00:27:18.323Z,3.96
2023-01-13T00:29:44.556Z,3.93
2023-01-13T00:32:10.776Z,4.08
2023-01-13T00:34:37.024Z,4.06
2023-01-13T00:37:03.253Z,3.99
2023-01-13T00:39:29.571Z,4.04
2023-01-13T00:41:55.848Z,4.12
2023-01-13T00:44:22.092Z,4.16
2023-01-13T00:46:48.409Z,3.32
2023-01-13T00:49:14.768Z,2.75
2023-01-13T00:51:41.013Z,2.63
2023-01-13T00:54:07.234Z,2.82
2023-01-13T00:56:40.165Z,2.98
2023-01-13T00:59:07.184Z,3.11
2023-01-13T01:01:33.537Z,2.97
2023-01-13T01:03:59.840Z,3.01
2023-01-13T01:06:26.077Z,3.03
2023-01-13T01:08:52.330Z,3.10
2023-01-13T01:11:18.613Z,3.20
2023-01-13T01:13:44.825Z,3.22
2023-01-13T01:16:11.180Z,3.24
2023-01-13T01:18:37.422Z,3.32
2023-01-13T01:21:03.654Z,3.39
2023-01-13T01:23:29.976Z,3.43
2023-01-13T01:25:56.349Z,3.45
2023-01-13T01:28:22.914Z,3.44
2023-01-13T01:30:49.229Z,3.47
2023-01-13T01:33:15.492Z,3.51
2023-01-13T01:35:41.725Z,3.60
2023-01-13T01:38:08.291Z,3.60
2023-01-13T01:40:34.547Z,3.57
2023-01-13T01:43:00.782Z,3.55
2023-01-13T01:45:27.070Z,3.53
2023-01-13T01:47:53.294Z,3.63
2023-01-13T01:50:19.545Z,3.63
2023-01-13T01:52:45.863Z,3.66
2023-01-13T01:55:12.085Z,3.64
2023-01-13T01:57:38.305Z,3.77
2023-01-13T02:00:04.621Z,3.83
2023-01-13T02:02:30.837Z,3.86
2023-01-13T02:04:57.140Z,3.94
2023-01-13T02:07:23.427Z,3.98
2023-01-13T02:09:49.647Z,4.04
2023-01-13T02:12:15.865Z,4.07
2023-01-13T02:14:42.237Z,4.14
2023-01-13T02:17:08.479Z,4.13
2023-01-13T02:19:34.685Z,4.12
2023-01-13T02:22:01.015Z,4.09
2023-01-13T02:24:27.227Z,4.14
2023-01-13T02:26:53.462Z,4.20
2023-01-13T02:29:19.806Z,4.25
2023-01-13T02:31:46.176Z,4.32
2023-01-13T02:34:12.436Z,4.34
2023-01-13T02:36:38.658Z,4.31
2023-01-13T02:39:04.940Z,4.28
2023-01-13T02:41:31.157Z,4.25
2023-01-13T02:43:57.413Z,4.19
2023-01-13T02:46:23.708Z,4.23
2023-01-13T02:48:50.134Z,4.29
2023-01-13T02:51:16.420Z,4.20
2023-01-13T02:53:42.701Z,4.24
2023-01-13T02:56:08.922Z,4.30
2023-01-13T02:58:35.190Z,4.30
2023-01-13T03:01:01.589Z,4.17
2023-01-13T03:03:27.934Z,4.11
2023-01-13T03:05:54.253Z,3.94
2023-01-13T03:08:21.271Z,3.99
2023-01-13T03:10:47.580Z,4.03
2023-01-13T03:13:13.835Z,3.94
2023-01-13T03:15:40.135Z,3.93
2023-01-13T03:18:06.370Z,3.96
2023-01-13T03:20:32.664Z,3.94
2023-01-13T03:22:58.947Z,3.99
2023-01-13T03:25:25.172Z,4.00
2023-01-13T03:27:51.460Z,4.00
2023-01-13T03:30:17.787Z,4.06
2023-01-13T03:32:44.029Z,4.23
2023-01-13T03:35:10.368Z,4.17
2023-01-13T03:37:36.712Z,4.13
2023-01-13T03:40:03.139Z,4.19
2023-01-13T03:42:29.424Z,4.27
2023-01-13T03:44:55.725Z,4.43
2023-01-13T03:47:21.965Z,4.54
2023-01-13T03:49:48.260Z,4.49
2023-01-13T03:52:14.626Z,4.50
2023-01-13T03:54:40.878Z,4.52
2023-01-13T03:57:07.107Z,4.63
2023-01-13T03:59:33.401Z,4.75
2023-01-13T04:01:59.736Z,4.35
2023-01-13T04:04:26.058Z,3.86
2023-01-13T04:06:52.384Z,2.94
2023-01-13T04:09:18.673Z,3.22
2023-01-13T04:11:44.904Z,3.16
2023-01-13T04:14:11.243Z,3.39
2023-01-13T04:16:37.854Z,3.56
2023-01-13T04:19:04.153Z,3.74
2023-01-13T04:21:30.470Z,3.92
2023-01-13T04:23:56.747Z,4.03
2023-01-13T04:26:23.033Z,3.92
2023-01-13T04:28:49.319Z,3.89
2023-01-13T04:31:15.614Z,4.01
2023-01-13T04:33:41.878Z,4.15
2023-01-13T04:36:08.179Z,4.22
2023-01-13T04:38:34.409Z,4.31
2023-01-13T04:41:00.668Z,4.21
2023-01-13T04:43:26.996Z,4.03
2023-01-13T04:45:53.312Z,4.00
2023-01-13T04:48:20.125Z,4.06
2023-01-13T04:50:46.466Z,4.17
2023-01-13T04:53:12.704Z,4.26
2023-01-13T04:55:38.979Z,4.44
2023-01-13T04:58:05.320Z,4.51
2023-01-13T05:00:31.568Z,4.50
2023-01-13T05:02:57.857Z,4.48
2023-01-13T05:05:24.185Z,4.58
2023-01-13T05:07:50.418Z,4.62
2023-01-13T05:10:16.750Z,4.72
2023-01-13T05:12:43.058Z,4.78
2023-01-13T05:15:09.291Z,4.93
2023-01-13T05:17:35.522Z,4.96
2023-01-13T05:20:01.813Z,5.00
2023-01-13T05:22:28.078Z,4.96
2023-01-13T05:24:54.337Z,4.99
2023-01-13T05:27:20.645Z,4.95
2023-01-13T05:29:46.935Z,5.02
2023-01-13T05:32:13.209Z,5.12
2023-01-13T05:34:39.550Z,5.17
2023-01-13T05:37:05.788Z,5.22
2023-01-13T05:39:32.080Z,5.31
2023-01-13T05:41:58.336Z,5.35
2023-01-13T05:44:24.798Z,5.47
2023-01-13T05:46:51.173Z,5.52
2023-01-13T05:49:17.448Z,5.55
2023-01-13T05:51:43.771Z,5.62
2023-01-13T05:54:10.037Z,5.65
2023-01-13T05:56:36.281Z,5.77
2023-01-13T05:59:02.574Z,5.84
2023-01-13T06:01:28.933Z,5.84
2023-01-13T06:03:55.203Z,5.85
2023-01-13T06:06:21.492Z,5.77
2023-01-13T06:08:47.754Z,5.75
2023-01-13T06:11:14.049Z,5.84
2023-01-13T06:13:40.341Z,5.90
2023-01-13T06:16:06.642Z,5.94
2023-01-13T06:18:32.945Z,5.96
2023-01-13T06:20:59.239Z,5.99
2023-01-13T06:23:25.523Z,6.03
2023-01-13T06:25:51.781Z,6.10
2023-01-13T06:28:18.097Z,6.15
2023-01-13T06:30:44.374Z,6.16
2023-01-13T06:33:10.637Z,6.11
2023-01-13T06:35:36.947Z,6.11
2023-01-13T06:38:03.283Z,5.96
2023-01-13T06:40:29.530Z,5.95
2023-01-13T06:42:55.831Z,5.98
2023-01-13T06:45:22.272Z,6.05
2023-01-13T06:47:48.653Z,6.06
2023-01-13T06:50:14.972Z,5.98
2023-01-13T06:52:41.225Z,5.94
2023-01-13T06:55:07.522Z,5.92
2023-01-13T06:57:33.856Z,5.95
2023-01-13T07:00:00.117Z,5.95
2023-01-13T07:02:26.470Z,5.84
2023-01-13T07:04:52.784Z,5.83
2023-01-13T07:07:19.047Z,5.59
2023-01-13T07:09:45.319Z,5.64
2023-01-13T07:12:11.629Z,5.64
2023-01-13T07:14:37.919Z,5.60
2023-01-13T07:17:04.204Z,5.68
2023-01-13T07:19:30.490Z,5.76
2023-01-13T07:21:56.792Z,5.85
2023-01-13T07:24:23.025Z,5.92
2023-01-13T07:26:49.357Z,5.91
2023-01-13T07:29:15.664Z,5.94
2023-01-13T07:31:42.013Z,5.92
2023-01-13T07:34:08.446Z,5.89
2023-01-13T07:36:34.738Z,5.69
2023-01-13T07:39:01.248Z,5.68
2023-01-13T07:41:28.136Z,5.83
2023-01-13T07:43:55.003Z,5.78
2023-01-13T07:46:21.448Z,5.77
2023-01-13T07:48:49.134Z,5.77
2023-01-13T07:51:15.540Z,5.66
2023-01-13T07:53:41.808Z,5.52
2023-01-13T07:56:08.058Z,5.63
2023-01-13T07:58:34.386Z,5.57
2023-01-13T08:01:00.795Z,5.57
2023-01-13T08:03:27.192Z,5.69
2023-01-13T08:05:53.510Z,5.83
2023-01-13T08:08:19.898Z,5.91
2023-01-13T08:10:46.237Z,6.04
2023-01-13T08:13:12.668Z,6.13
2023-01-13T08:15:39.015Z,6.22
2023-01-13T08:18:05.281Z,6.31
2023-01-13T08:20:31.588Z,6.30
2023-01-13T08:22:57.856Z,6.43
2023-01-13T08:25:24.100Z,6.31
2023-01-13T08:27:50.487Z,6.37
2023-01-13T08:30:16.898Z,6.19
2023-01-13T08:32:43.147Z,6.25
2023-01-13T08:35:09.455Z,6.27
2023-01-13T08:37:35.744Z,6.38
2023-01-13T08:40:02.033Z,6.46
2023-01-13T08:42:28.622Z,6.43
2023-01-13T08:44:54.874Z,6.45
2023-01-13T08:47:21.151Z,6.52
2023-01-13T08:49:47.440Z,6.57
2023-01-13T08:52:13.689Z,6.56
2023-01-13T08:54:39.961Z,6.52
2023-01-13T08:57:06.386Z,6.54
2023-01-13T08:59:32.681Z,6.57
2023-01-13T09:01:59.028Z,6.62
2023-01-13T09:04:25.460Z,6.71
2023-01-13T09:06:51.760Z,6.75
2023-01-13T09:09:18.008Z,6.81
2023-01-13T09:11:44.346Z,6.84
2023-01-13T09:14:10.609Z,6.84
2023-01-13T09:16:36.860Z,6.83
2023-01-13T09:19:03.194Z,6.84
2023-01-13T09:21:29.496Z,6.92
2023-01-13T09:23:55.752Z,6.91
2023-01-13T09:26:22.020Z,6.91
2023-01-13T09:28:48.316Z,6.93
2023-01-13T09:31:14.756Z,6.86
2023-01-13T09:33:41.118Z,6.85
2023-01-13T09:36:07.414Z,6.91
2023-01-13T09:38:33.694Z,6.99
2023-01-13T09:41:00.066Z,7.08
2023-01-13T09:43:26.389Z,7.24
2023-01-13T09:45:52.676Z,7.31
2023-01-13T09:48:18.982Z,7.34
2023-01-13T09:50:45.349Z,7.43
2023-01-13T09:53:11.609Z,7.40
2023-01-13T09:55:37.862Z,7.10
2023-01-13T09:58:04.268Z,7.03
2023-01-13T10:00:30.665Z,6.95
2023-01-13T10:02:58.404Z,6.81
2023-01-13T10:05:24.886Z,6.53
2023-01-13T10:07:51.325Z,6.29
2023-01-13T10:10:17.739Z,6.31
2023-01-13T10:12:44.263Z,6.33
2023-01-13T10:15:10.688Z,6.17
2023-01-13T10:17:36.967Z,6.11
2023-01-13T10:20:03.277Z,5.50
2023-01-13T10:22:29.531Z,4.41
2023-01-13T10:24:55.793Z,4.07
2023-01-13T10:27:22.108Z,4.29
2023-01-13T10:29:48.419Z,4.76
2023-01-13T10:32:14.666Z,4.98
2023-01-13T10:34:40.971Z,5.20
2023-01-13T10:37:07.256Z,5.42
2023-01-13T10:39:33.563Z,5.69
2023-01-13T10:41:59.895Z,6.10
2023-01-13T10:44:26.265Z,6.42
2023-01-13T10:46:52.571Z,6.75
2023-01-13T10:49:18.953Z,6.92
2023-01-13T10:51:45.263Z,7.16
2023-01-13T10:54:11.542Z,7.23
2023-01-13T10:56:37.860Z,7.42
2023-01-13T10:59:04.150Z,7.54
2023-01-13T11:01:30.582Z,7.51
2023-01-13T11:03:57.043Z,7.30
2023-01-13T11:06:23.399Z,7.48
2023-01-13T11:08:49.661Z,7.76
2023-01-13T11:11:16.040Z,7.99
2023-01-13T11:13:42.312Z,8.17
2023-01-13T11:16:08.618Z,8.34
2023-01-13T11:18:34.985Z,8.47
2023-01-13T11:21:01.306Z,8.63
2023-01-13T11:23:27.688Z,8.75
2023-01-13T11:25:54.037Z,8.78
2023-01-13T11:28:20.292Z,8.50
2023-01-13T11:30:46.543Z,8.50
2023-01-13T11:33:12.844Z,8.44
2023-01-13T11:35:39.108Z,8.29
2023-01-13T11:38:05.416Z,8.16
2023-01-13T11:40:31.745Z,8.06
2023-01-13T11:42:58.010Z,7.97
2023-01-13T11:45:24.241Z,7.99
2023-01-13T11:47:50.951Z,8.04
2023-01-13T11:50:17.280Z,7.71
2023-01-13T11:52:43.569Z,7.52
2023-01-13T11:55:09.897Z,7.58
2023-01-13T11:57:36.153Z,7.53
2023-01-13T12:00:02.371Z,7.50
2023-01-13T12:02:28.744Z,7.48
2023-01-13T12:04:55.054Z,7.44
2023-01-13T12:07:23.127Z,7.35
2023-01-13T12:09:49.718Z,7.25
2023-01-13T12:12:15.981Z,6.69
2023-01-13T12:14:42.258Z,6.67
2023-01-13T12:17:09.157Z,6.50
2023-01-13T12:19:35.492Z,6.59
2023-01-13T12:22:01.803Z,6.59
2023-01-13T12:24:28.127Z,6.57
2023-01-13T12:26:54.439Z,6.62
2023-01-13T12:29:20.708Z,6.33
2023-01-13T12:31:47.042Z,6.44
2023-01-13T12:34:13.397Z,6.41
2023-01-13T12:36:39.663Z,6.05
2023-01-13T12:39:05.973Z,6.13
2023-01-13T12:41:32.244Z,6.21
2023-01-13T12:43:58.526Z,6.19
2023-01-13T12:46:24.994Z,5.99
2023-01-13T12:48:51.431Z,6.10
2023-01-13T12:51:18.316Z,6.26
2023-01-13T12:53:44.740Z,6.35
2023-01-13T12:56:11.161Z,6.45
2023-01-13T12:58:37.483Z,6.50
2023-01-13T13:01:03.914Z,6.54
2023-01-13T13:03:30.323Z,6.59
2023-01-13T13:05:56.610Z,6.72
2023-01-13T13:08:22.864Z,6.93
2023-01-13T13:10:49.161Z,7.19
2023-01-13T13:13:15.439Z,7.30
2023-01-13T13:15:41.688Z,7.44
2023-01-13T13:18:07.990Z,7.65
2023-01-13T13:20:34.355Z,7.85
2023-01-13T13:23:03.743Z,8.03
2023-01-13T13:25:30.059Z,8.17
2023-01-13T13:27:56.371Z,8.37
2023-01-13T13:30:22.674Z,8.48
2023-01-13T13:32:48.917Z,8.65
2023-01-13T13:35:15.191Z,8.82
2023-01-13T13:37:41.426Z,8.97
2023-01-13T13:40:07.749Z,8.92
2023-01-13T13:42:34.052Z,8.98
2023-01-13T13:45:00.306Z,8.99
2023-01-13T13:47:26.622Z,8.84
2023-01-13T13:49:52.946Z,8.65
2023-01-13T13:52:19.404Z,8.76
2023-01-13T13:54:45.786Z,8.90
2023-01-13T13:57:12.043Z,8.87
2023-01-13T13:59:38.280Z,8.92
2023-01-13T14:02:04.708Z,8.99
2023-01-13T14:04:31.070Z,8.99
2023-01-13T14:06:57.312Z,8.96
2023-01-13T14:09:23.568Z,8.55
2023-01-13T14:11:49.811Z,8.41
2023-01-13T14:14:16.067Z,8.38
2023-01-13T14:16:42.319Z,8.47
2023-01-13T14:19:08.611Z,8.55
2023-01-13T14:21:34.993Z,8.56
2023-01-13T14:24:01.228Z,8.56
2023-01-13T14:26:27.698Z,8.52
2023-01-13T14:28:53.982Z,8.54
2023-01-13T14:31:20.230Z,8.53
2023-01-13T14:33:46.528Z,8.55
2023-01-13T14:36:12.827Z,8.49
2023-01-13T14:38:39.080Z,8.46
2023-01-13T14:41:05.335Z,8.61
2023-01-13T14:43:31.696Z,8.86
2023-01-13T14:45:57.998Z,9.12
2023-01-13T14:48:24.270Z,9.17
2023-01-13T14:50:50.600Z,8.94
2023-01-13T14:53:16.888Z,8.76
2023-01-13T14:55:43.123Z,8.60
2023-01-13T14:58:09.442Z,8.48
2023-01-13T15:00:35.760Z,8.24
2023-01-13T15:03:02.107Z,8.22
2023-01-13T15:05:28.407Z,7.62
2023-01-13T15:07:54.681Z,7.65
2023-01-13T15:10:20.926Z,7.80
2023-01-13T15:12:47.238Z,7.21
2023-01-13T15:15:13.646Z,6.97
2023-01-13T15:17:40.010Z,6.78
2023-01-13T15:20:06.503Z,6.98
2023-01-13T15:22:32.920Z,7.09
2023-01-13T15:24:59.321Z,7.22
2023-01-13T15:27:25.666Z,7.34
2023-01-13T15:29:51.968Z,7.27
2023-01-13T15:32:18.233Z,7.35
2023-01-13T15:34:44.587Z,7.27
2023-01-13T15:37:10.882Z,7.22
2023-01-13T15:39:37.163Z,7.09
2023-01-13T15:42:03.497Z,7.14
2023-01-13T15:44:29.791Z,7.13
2023-01-13T15:46:56.043Z,7.13
2023-01-13T15:49:22.327Z,7.09
2023-01-13T15:51:48.636Z,7.05
2023-01-13T15:54:15.442Z,6.74
2023-01-13T15:56:41.857Z,6.80
2023-01-13T15:59:08.123Z,6.90
2023-01-13T16:01:34.420Z,6.98
2023-01-13T16:04:00.895Z,7.01
2023-01-13T16:06:27.291Z,7.06
2023-01-13T16:08:53.553Z,7.09
2023-01-13T16:11:19.869Z,7.14
2023-01-13T16:13:46.195Z,7.15
2023-01-13T16:16:12.463Z,7.14
2023-01-13T16:18:40.495Z,7.13
2023-01-13T16:21:06.843Z,7.25
2023-01-13T16:23:33.115Z,7.21
2023-01-13T16:25:59.558Z,7.20
2023-01-13T16:28:25.822Z,7.08
2023-01-13T16:30:52.096Z,7.17
2023-01-13T16:33:19.571Z,7.17
2023-01-13T16:36:10.543Z,7.18
2023-01-13T16:38:32.191Z,7.21
2023-01-13T16:40:58.474Z,7.26
2023-01-13T16:43:24.710Z,7.21
2023-01-13T16:45:51.108Z,7.19
2023-01-13T16:48:17.370Z,7.21
2023-01-13T16:50:43.606Z,7.16
2023-01-13T16:53:09.894Z,7.22
2023-01-13T16:55:36.178Z,7.24
2023-01-13T16:58:02.481Z,7.24
2023-01-13T17:00:28.832Z,7.13
2023-01-13T17:02:55.086Z,7.15
2023-01-13T17:05:21.314Z,7.13
2023-01-13T17:07:47.615Z,7.15
2023-01-13T17:10:13.914Z,6.88
2023-01-13T17:12:40.197Z,6.72
2023-01-13T17:15:06.511Z,6.86
2023-01-13T17:17:32.798Z,7.00
2023-01-13T17:19:59.093Z,7.06
2023-01-13T17:22:25.352Z,7.12
2023-01-13T17:24:51.695Z,7.17
2023-01-13T17:27:17.994Z,7.22
2023-01-13T17:29:44.255Z,7.25
2023-01-13T17:32:10.521Z,7.19
2023-01-13T17:34:36.847Z,6.84
2023-01-13T17:37:03.149Z,6.60
2023-01-13T17:39:29.391Z,6.72
2023-01-13T17:41:55.705Z,6.64
2023-01-13T17:44:21.996Z,6.58
2023-01-13T17:46:48.282Z,6.65
2023-01-13T17:49:14.586Z,6.75
2023-01-13T17:51:40.883Z,6.80
2023-01-13T17:54:07.125Z,6.87
2023-01-13T17:56:33.466Z,6.81
2023-01-13T17:58:59.748Z,6.85
2023-01-13T18:01:26.070Z,6.85
2023-01-13T18:03:52.431Z,6.81
2023-01-13T18:06:18.706Z,6.74
2023-01-13T18:08:44.956Z,6.62
2023-01-13T18:11:11.260Z,6.62
2023-01-13T18:13:37.527Z,6.53
2023-01-13T18:16:03.764Z,6.55
2023-01-13T18:18:30.071Z,6.52
2023-01-13T18:20:56.471Z,6.43
2023-01-13T18:23:22.747Z,6.34
2023-01-13T18:25:49.163Z,6.43
2023-01-13T18:28:15.420Z,6.50
2023-01-13T18:30:41.700Z,6.48
2023-01-13T18:33:08.016Z,6.51
2023-01-13T18:35:35.936Z,6.58
2023-01-13T18:38:02.193Z,6.60
2023-01-13T18:40:28.503Z,6.54
2023-01-13T18:42:55.120Z,6.60
2023-01-13T18:45:21.508Z,6.55
2023-01-13T18:47:47.805Z,6.35
2023-01-13T18:50:14.089Z,6.48
2023-01-13T18:52:40.340Z,6.44
2023-01-13T18:55:06.634Z,6.48
2023-01-13T18:57:34.012Z,6.52
2023-01-13T19:00:01.651Z,6.52
2023-01-13T19:02:28.056Z,6.36
2023-01-13T19:04:54.374Z,6.39
2023-01-13T19:07:20.626Z,6.46
2023-01-13T19:09:46.915Z,6.45
2023-01-13T19:12:13.208Z,6.36
2023-01-13T19:14:39.442Z,6.31
2023-01-13T19:17:05.722Z,6.40
2023-01-13T19:19:32.009Z,6.41
2023-01-13T19:21:58.264Z,6.47
2023-01-13T19:24:24.590Z,6.31
2023-01-13T19:26:50.926Z,6.36
2023-01-13T19:29:17.183Z,6.42
2023-01-13T19:31:43.460Z,6.45
2023-01-13T19:34:09.758Z,6.46
2023-01-13T19:36:36.080Z,6.49
2023-01-13T19:39:02.395Z,6.54
2023-01-13T19:41:28.745Z,6.50
2023-01-13T19:43:54.968Z,6.50
2023-01-13T19:46:21.259Z,6.50
2023-01-13T19:48:47.518Z,6.47
2023-01-13T19:51:13.750Z,6.44
2023-01-13T19:53:40.034Z,6.48
2023-01-13T19:56:06.332Z,6.50
2023-01-13T19:58:32.594Z,6.48
2023-01-13T20:00:58.893Z,6.44
2023-01-13T20:03:25.294Z,6.41
2023-01-13T20:05:51.557Z,6.36
2023-01-13T20:08:17.819Z,6.41
2023-01-13T20:10:44.146Z,6.41
2023-01-13T20:13:10.396Z,6.42
2023-01-13T20:15:36.626Z,6.48
2023-01-13T20:18:02.990Z,6.59
2023-01-13T20:20:29.240Z,6.53
2023-01-13T20:22:55.497Z,6.51
2023-01-13T20:25:21.881Z,6.43
2023-01-13T20:27:48.162Z,6.44
2023-01-13T20:30:14.415Z,6.55
2023-01-13T20:32:40.764Z,6.22
2023-01-13T20:35:07.040Z,6.20
2023-01-13T20:37:33.282Z,6.09
2023-01-13T20:39:59.564Z,6.14
2023-01-13T20:42:25.868Z,6.23
2023-01-13T20:44:52.120Z,6.35
2023-01-13T20:47:18.409Z,6.01
2023-01-13T20:49:44.721Z,6.10
2023-01-13T20:52:10.991Z,6.23
2023-01-13T20:54:37.300Z,6.21
2023-01-13T20:57:03.615Z,6.36
2023-01-13T20:59:29.898Z,6.48
2023-01-13T21:01:56.136Z,6.53
2023-01-13T21:04:22.434Z,6.57
2023-01-13T21:06:48.744Z,6.66
2023-01-13T21:09:15.028Z,6.71
2023-01-13T21:11:41.285Z,6.72
2023-01-13T21:14:07.643Z,6.74
2023-01-13T21:16:33.949Z,6.65
2023-01-13T21:19:00.197Z,6.51
2023-01-13T21:21:26.562Z,6.55
2023-01-13T21:23:52.906Z,6.61
2023-01-13T21:26:19.171Z,6.65
2023-01-13T21:28:47.230Z,6.63
2023-01-13T21:31:13.946Z,6.52
2023-01-13T21:33:40.265Z,6.49
2023-01-13T21:36:06.514Z,6.49
2023-01-13T21:38:32.817Z,6.47
2023-01-13T21:40:59.082Z,6.37
2023-01-13T21:43:25.340Z,6.36
2023-01-13T21:45:51.748Z,6.36
2023-01-13T21:48:18.085Z,6.32
2023-01-13T21:50:44.325Z,6.33
2023-01-13T21:53:10.627Z,6.27
2023-01-13T21:55:37.091Z,6.19
2023-01-13T21:58:03.418Z,6.20
2023-01-13T22:00:29.722Z,6.09
2023-01-13T22:02:55.970Z,5.91
2023-01-13T22:05:22.184Z,5.81
2023-01-13T22:07:49.484Z,5.80
2023-01-13T22:10:15.813Z,5.81
2023-01-13T22:12:42.059Z,5.84
2023-01-13T22:15:08.330Z,5.91
2023-01-13T22:17:34.617Z,5.89
2023-01-13T22:20:00.898Z,5.87
2023-01-13T22:22:27.238Z,5.72
2023-01-13T22:24:53.558Z,5.77
2023-01-13T22:27:19.808Z,5.80
2023-01-13T22:29:46.150Z,5.84
2023-01-13T22:32:12.421Z,5.96
2023-01-13T22:34:38.750Z,6.00
2023-01-13T22:37:04.996Z,5.97
2023-01-13T22:39:31.333Z,5.80
2023-01-13T22:41:57.618Z,5.64
2023-01-13T22:44:23.850Z,5.59
2023-01-13T22:46:50.139Z,5.77
2023-01-13T22:49:16.408Z,5.78
2023-01-13T22:51:42.703Z,5.81
2023-01-13T22:54:08.987Z,5.81
2023-01-13T22:56:35.258Z,5.88
2023-01-13T22:59:01.519Z,5.79
2023-01-13T23:01:27.830Z,5.64
2023-01-13T23:03:54.180Z,5.78
2023-01-13T23:06:20.444Z,5.81
2023-01-13T23:08:48.011Z,5.71
2023-01-13T23:11:14.272Z,5.76
2023-01-13T23:13:40.525Z,5.77
2023-01-13T23:16:06.812Z,5.80
2023-01-13T23:18:33.117Z,5.60
2023-01-13T23:20:59.446Z,5.59
2023-01-13T23:23:25.702Z,5.59
2023-01-13T23:25:51.998Z,5.29
2023-01-13T23:28:18.323Z,4.93
2023-01-13T23:30:44.638Z,5.03
2023-01-13T23:33:10.934Z,5.01
2023-01-13T23:35:37.174Z,5.08
2023-01-13T23:38:03.430Z,5.14
2023-01-13T23:40:29.741Z,5.14
2023-01-13T23:42:56.013Z,5.13
2023-01-13T23:45:22.282Z,5.13
2023-01-13T23:47:48.575Z,5.13
2023-01-13T23:50:14.849Z,5.16
2023-01-13T23:52:41.089Z,5.14
2023-01-13T23:55:07.389Z,5.06
2023-01-13T23:57:33.913Z,4.97
